sensor_id;sensor_type;location;lat;lon;timestamp;P1;durP1;ratioP1;P2;durP2;ratioP2
59998;SDS011;45859;51.378;6.736;2023-04-06T00:01:34;8.13;;;5.33;;
59998;SDS011;45859;51.378;6.736;2023-04-06T00:04:00;12.13;;;5.30;;
59998;SDS011;45859;51.378;6.736;2023-04-06T00:06:26;12.40;;;5.73;;
59998;SDS011;45859;51.378;6.736;2023-04-06T00:08:52;9.27;;;4.47;;
59998;SDS011;45859;51.378;6.736;2023-04-06T00:11:18;11.80;;;5.50;;
59998;SDS011;45859;51.378;6.736;2023-04-06T00:13:44;12.07;;;6.33;;
59998;SDS011;45859;51.378;6.736;2023-04-06T00:16:10;8.27;;;4.50;;
59998;SDS011;45859;51.378;6.736;2023-04-06T00:18:35;9.43;;;5.67;;
59998;SDS011;45859;51.378;6.736;2023-04-06T00:21:01;8.47;;;4.60;;
59998;SDS011;45859;51.378;6.736;2023-04-06T00:23:27;6.63;;;3.87;;
59998;SDS011;45859;51.378;6.736;2023-04-06T00:25:53;9.77;;;4.67;;
59998;SDS011;45859;51.378;6.736;2023-04-06T00:28:18;10.80;;;5.33;;
59998;SDS011;45859;51.378;6.736;2023-04-06T00:30:50;11.33;;;5.47;;
59998;SDS011;45859;51.378;6.736;2023-04-06T00:33:17;9.03;;;4.67;;
59998;SDS011;45859;51.378;6.736;2023-04-06T00:35:43;10.47;;;5.47;;
59998;SDS011;45859;51.378;6.736;2023-04-06T00:38:09;13.10;;;5.80;;
59998;SDS011;45859;51.378;6.736;2023-04-06T00:40:35;8.13;;;4.60;;
59998;SDS011;45859;51.378;6.736;2023-04-06T00:43:01;6.93;;;3.60;;
59998;SDS011;45859;51.378;6.736;2023-04-06T00:45:28;9.10;;;4.50;;
59998;SDS011;45859;51.378;6.736;2023-04-06T00:47:53;11.23;;;5.10;;
59998;SDS011;45859;51.378;6.736;2023-04-06T00:50:20;8.97;;;4.63;;
59998;SDS011;45859;51.378;6.736;2023-04-06T00:52:46;8.37;;;4.07;;
59998;SDS011;45859;51.378;6.736;2023-04-06T00:55:12;9.47;;;4.70;;
59998;SDS011;45859;51.378;6.736;2023-04-06T00:57:38;10.17;;;4.13;;
59998;SDS011;45859;51.378;6.736;2023-04-06T01:00:04;4.30;;;2.53;;
59998;SDS011;45859;51.378;6.736;2023-04-06T01:02:30;6.40;;;3.20;;
59998;SDS011;45859;51.378;6.736;2023-04-06T01:04:56;12.73;;;5.03;;
59998;SDS011;45859;51.378;6.736;2023-04-06T01:07:22;4.80;;;2.67;;
59998;SDS011;45859;51.378;6.736;2023-04-06T01:09:49;6.27;;;2.57;;
59998;SDS011;45859;51.378;6.736;2023-04-06T01:12:15;6.90;;;4.13;;
59998;SDS011;45859;51.378;6.736;2023-04-06T01:14:41;3.27;;;2.63;;
59998;SDS011;45859;51.378;6.736;2023-04-06T01:17:06;9.40;;;3.80;;
59998;SDS011;45859;51.378;6.736;2023-04-06T01:19:32;10.60;;;5.27;;
59998;SDS011;45859;51.378;6.736;2023-04-06T01:21:58;8.93;;;4.57;;
59998;SDS011;45859;51.378;6.736;2023-04-06T01:24:23;6.87;;;3.07;;
59998;SDS011;45859;51.378;6.736;2023-04-06T01:26:49;4.93;;;2.37;;
59998;SDS011;45859;51.378;6.736;2023-04-06T01:29:15;6.73;;;3.43;;
59998;SDS011;45859;51.378;6.736;2023-04-06T01:31:41;9.50;;;4.67;;
59998;SDS011;45859;51.378;6.736;2023-04-06T01:34:07;8.83;;;4.60;;
59998;SDS011;45859;51.378;6.736;2023-04-06T01:36:33;6.60;;;3.27;;
59998;SDS011;45859;51.378;6.736;2023-04-06T01:38:59;11.23;;;5.10;;
59998;SDS011;45859;51.378;6.736;2023-04-06T01:41:25;10.47;;;4.33;;
59998;SDS011;45859;51.378;6.736;2023-04-06T01:43:51;9.57;;;4.40;;
59998;SDS011;45859;51.378;6.736;2023-04-06T01:46:19;11.90;;;4.50;;
59998;SDS011;45859;51.378;6.736;2023-04-06T01:48:45;10.53;;;4.20;;
59998;SDS011;45859;51.378;6.736;2023-04-06T01:51:11;8.77;;;3.67;;
59998;SDS011;45859;51.378;6.736;2023-04-06T01:53:36;8.10;;;3.53;;
59998;SDS011;45859;51.378;6.736;2023-04-06T01:56:02;5.20;;;2.53;;
59998;SDS011;45859;51.378;6.736;2023-04-06T01:58:28;3.17;;;2.53;;
59998;SDS011;45859;51.378;6.736;2023-04-06T02:00:54;9.87;;;3.87;;
59998;SDS011;45859;51.378;6.736;2023-04-06T02:03:20;7.07;;;3.30;;
59998;SDS011;45859;51.378;6.736;2023-04-06T02:05:46;10.07;;;5.00;;
59998;SDS011;45859;51.378;6.736;2023-04-06T02:08:11;9.63;;;4.30;;
59998;SDS011;45859;51.378;6.736;2023-04-06T02:10:37;13.03;;;5.00;;
59998;SDS011;45859;51.378;6.736;2023-04-06T02:13:03;6.17;;;3.70;;
59998;SDS011;45859;51.378;6.736;2023-04-06T02:15:28;9.83;;;3.97;;
59998;SDS011;45859;51.378;6.736;2023-04-06T02:17:54;2.33;;;1.40;;
59998;SDS011;45859;51.378;6.736;2023-04-06T02:20:20;3.70;;;2.07;;
59998;SDS011;45859;51.378;6.736;2023-04-06T02:22:45;1.60;;;1.27;;
59998;SDS011;45859;51.378;6.736;2023-04-06T02:25:11;3.53;;;2.90;;
59998;SDS011;45859;51.378;6.736;2023-04-06T02:27:37;4.37;;;2.37;;
59998;SDS011;45859;51.378;6.736;2023-04-06T02:30:03;3.17;;;2.67;;
59998;SDS011;45859;51.378;6.736;2023-04-06T02:32:29;2.00;;;1.63;;
59998;SDS011;45859;51.378;6.736;2023-04-06T02:34:55;6.10;;;3.37;;
59998;SDS011;45859;51.378;6.736;2023-04-06T02:37:21;8.17;;;2.57;;
59998;SDS011;45859;51.378;6.736;2023-04-06T02:39:48;8.07;;;3.33;;
59998;SDS011;45859;51.378;6.736;2023-04-06T02:42:15;5.50;;;2.80;;
59998;SDS011;45859;51.378;6.736;2023-04-06T02:44:41;3.40;;;1.93;;
59998;SDS011;45859;51.378;6.736;2023-04-06T02:47:07;3.97;;;2.03;;
59998;SDS011;45859;51.378;6.736;2023-04-06T02:49:33;8.43;;;4.37;;
59998;SDS011;45859;51.378;6.736;2023-04-06T02:51:59;8.80;;;3.90;;
59998;SDS011;45859;51.378;6.736;2023-04-06T02:54:25;3.17;;;2.73;;
59998;SDS011;45859;51.378;6.736;2023-04-06T02:56:51;3.20;;;2.73;;
59998;SDS011;45859;51.378;6.736;2023-04-06T02:59:17;5.87;;;3.87;;
59998;SDS011;45859;51.378;6.736;2023-04-06T03:01:43;9.27;;;3.63;;
59998;SDS011;45859;51.378;6.736;2023-04-06T03:04:09;10.77;;;4.83;;
59998;SDS011;45859;51.378;6.736;2023-04-06T03:06:35;7.10;;;4.07;;
59998;SDS011;45859;51.378;6.736;2023-04-06T03:09:02;9.83;;;4.57;;
59998;SDS011;45859;51.378;6.736;2023-04-06T03:11:28;5.53;;;3.30;;
59998;SDS011;45859;51.378;6.736;2023-04-06T03:13:53;7.27;;;3.87;;
59998;SDS011;45859;51.378;6.736;2023-04-06T03:16:19;7.13;;;4.80;;
59998;SDS011;45859;51.378;6.736;2023-04-06T03:18:45;10.80;;;5.00;;
59998;SDS011;45859;51.378;6.736;2023-04-06T03:21:12;16.53;;;6.03;;
59998;SDS011;45859;51.378;6.736;2023-04-06T03:23:40;6.50;;;4.50;;
59998;SDS011;45859;51.378;6.736;2023-04-06T03:26:05;8.93;;;4.80;;
59998;SDS011;45859;51.378;6.736;2023-04-06T03:28:31;6.17;;;3.33;;
59998;SDS011;45859;51.378;6.736;2023-04-06T03:30:57;3.10;;;2.57;;
59998;SDS011;45859;51.378;6.736;2023-04-06T03:33:23;8.17;;;3.97;;
59998;SDS011;45859;51.378;6.736;2023-04-06T03:35:48;4.07;;;2.47;;
59998;SDS011;45859;51.378;6.736;2023-04-06T03:38:14;16.10;;;6.87;;
59998;SDS011;45859;51.378;6.736;2023-04-06T03:40:40;9.67;;;5.53;;
59998;SDS011;45859;51.378;6.736;2023-04-06T03:43:07;12.40;;;4.67;;
59998;SDS011;45859;51.378;6.736;2023-04-06T03:45:33;10.40;;;5.57;;
59998;SDS011;45859;51.378;6.736;2023-04-06T03:47:59;8.13;;;4.60;;
59998;SDS011;45859;51.378;6.736;2023-04-06T03:50:25;7.20;;;4.17;;
59998;SDS011;45859;51.378;6.736;2023-04-06T03:52:51;9.70;;;4.63;;
59998;SDS011;45859;51.378;6.736;2023-04-06T03:55:17;5.57;;;3.60;;
59998;SDS011;45859;51.378;6.736;2023-04-06T03:57:43;10.37;;;4.43;;
59998;SDS011;45859;51.378;6.736;2023-04-06T04:00:09;6.63;;;3.63;;
59998;SDS011;45859;51.378;6.736;2023-04-06T04:02:36;5.87;;;3.37;;
59998;SDS011;45859;51.378;6.736;2023-04-06T04:05:01;10.57;;;3.40;;
59998;SDS011;45859;51.378;6.736;2023-04-06T04:07:27;11.67;;;5.87;;
59998;SDS011;45859;51.378;6.736;2023-04-06T04:09:53;10.00;;;5.07;;
59998;SDS011;45859;51.378;6.736;2023-04-06T04:12:19;17.20;;;7.73;;
59998;SDS011;45859;51.378;6.736;2023-04-06T04:14:45;16.77;;;7.73;;
59998;SDS011;45859;51.378;6.736;2023-04-06T04:17:11;14.70;;;5.93;;
59998;SDS011;45859;51.378;6.736;2023-04-06T04:19:37;16.47;;;6.43;;
59998;SDS011;45859;51.378;6.736;2023-04-06T04:22:03;7.40;;;3.30;;
59998;SDS011;45859;51.378;6.736;2023-04-06T04:24:30;9.90;;;3.70;;
59998;SDS011;45859;51.378;6.736;2023-04-06T04:26:56;5.47;;;3.10;;
59998;SDS011;45859;51.378;6.736;2023-04-06T04:29:22;15.40;;;6.37;;
59998;SDS011;45859;51.378;6.736;2023-04-06T04:31:48;14.67;;;4.63;;
59998;SDS011;45859;51.378;6.736;2023-04-06T04:34:15;8.70;;;4.37;;
59998;SDS011;45859;51.378;6.736;2023-04-06T04:36:40;11.13;;;5.53;;
59998;SDS011;45859;51.378;6.736;2023-04-06T04:39:07;7.53;;;4.57;;
59998;SDS011;45859;51.378;6.736;2023-04-06T04:41:33;5.10;;;3.30;;
59998;SDS011;45859;51.378;6.736;2023-04-06T04:43:58;9.60;;;4.03;;
59998;SDS011;45859;51.378;6.736;2023-04-06T04:46:24;10.70;;;4.80;;
59998;SDS011;45859;51.378;6.736;2023-04-06T04:48:50;2.40;;;2.13;;
59998;SDS011;45859;51.378;6.736;2023-04-06T04:51:16;3.73;;;2.60;;
59998;SDS011;45859;51.378;6.736;2023-04-06T04:53:42;6.00;;;3.90;;
59998;SDS011;45859;51.378;6.736;2023-04-06T04:56:07;7.07;;;3.20;;
59998;SDS011;45859;51.378;6.736;2023-04-06T04:58:33;7.93;;;2.17;;
59998;SDS011;45859;51.378;6.736;2023-04-06T05:00:59;9.03;;;5.17;;
59998;SDS011;45859;51.378;6.736;2023-04-06T05:03:25;11.73;;;4.47;;
59998;SDS011;45859;51.378;6.736;2023-04-06T05:05:52;4.37;;;2.00;;
59998;SDS011;45859;51.378;6.736;2023-04-06T05:08:17;4.10;;;1.90;;
59998;SDS011;45859;51.378;6.736;2023-04-06T05:10:43;6.33;;;3.47;;
59998;SDS011;45859;51.378;6.736;2023-04-06T05:13:10;14.80;;;5.43;;
59998;SDS011;45859;51.378;6.736;2023-04-06T05:15:36;6.53;;;3.77;;
59998;SDS011;45859;51.378;6.736;2023-04-06T05:18:05;4.37;;;2.43;;
59998;SDS011;45859;51.378;6.736;2023-04-06T05:20:31;9.43;;;4.47;;
59998;SDS011;45859;51.378;6.736;2023-04-06T05:22:56;6.10;;;2.60;;
59998;SDS011;45859;51.378;6.736;2023-04-06T05:25:22;7.00;;;4.13;;
59998;SDS011;45859;51.378;6.736;2023-04-06T05:27:48;9.17;;;3.47;;
59998;SDS011;45859;51.378;6.736;2023-04-06T05:30:14;8.30;;;4.33;;
59998;SDS011;45859;51.378;6.736;2023-04-06T05:32:40;6.00;;;3.43;;
59998;SDS011;45859;51.378;6.736;2023-04-06T05:35:07;8.17;;;3.47;;
59998;SDS011;45859;51.378;6.736;2023-04-06T05:37:33;5.33;;;2.37;;
59998;SDS011;45859;51.378;6.736;2023-04-06T05:39:59;4.43;;;2.93;;
59998;SDS011;45859;51.378;6.736;2023-04-06T05:42:25;8.37;;;3.47;;
59998;SDS011;45859;51.378;6.736;2023-04-06T05:44:52;2.27;;;2.00;;
59998;SDS011;45859;51.378;6.736;2023-04-06T05:47:17;7.43;;;3.87;;
59998;SDS011;45859;51.378;6.736;2023-04-06T05:49:43;1.93;;;1.47;;
59998;SDS011;45859;51.378;6.736;2023-04-06T05:52:09;11.30;;;3.00;;
59998;SDS011;45859;51.378;6.736;2023-04-06T05:54:36;10.40;;;4.37;;
59998;SDS011;45859;51.378;6.736;2023-04-06T05:57:02;3.77;;;2.30;;
59998;SDS011;45859;51.378;6.736;2023-04-06T05:59:31;8.73;;;3.83;;
59998;SDS011;45859;51.378;6.736;2023-04-06T06:01:57;11.60;;;4.63;;
59998;SDS011;45859;51.378;6.736;2023-04-06T06:04:23;4.63;;;3.00;;
59998;SDS011;45859;51.378;6.736;2023-04-06T06:06:49;5.40;;;2.80;;
59998;SDS011;45859;51.378;6.736;2023-04-06T06:09:15;10.30;;;4.87;;
59998;SDS011;45859;51.378;6.736;2023-04-06T06:11:41;4.70;;;2.97;;
59998;SDS011;45859;51.378;6.736;2023-04-06T06:14:07;8.20;;;3.87;;
59998;SDS011;45859;51.378;6.736;2023-04-06T06:16:32;5.77;;;3.63;;
59998;SDS011;45859;51.378;6.736;2023-04-06T06:18:58;3.43;;;2.00;;
59998;SDS011;45859;51.378;6.736;2023-04-06T06:21:24;6.67;;;3.13;;
59998;SDS011;45859;51.378;6.736;2023-04-06T06:23:50;7.73;;;3.27;;
59998;SDS011;45859;51.378;6.736;2023-04-06T06:26:16;5.70;;;3.43;;
59998;SDS011;45859;51.378;6.736;2023-04-06T06:28:42;9.43;;;3.50;;
59998;SDS011;45859;51.378;6.736;2023-04-06T06:31:07;14.90;;;9.20;;
59998;SDS011;45859;51.378;6.736;2023-04-06T06:33:33;14.50;;;9.33;;
59998;SDS011;45859;51.378;6.736;2023-04-06T06:35:59;13.83;;;8.03;;
59998;SDS011;45859;51.378;6.736;2023-04-06T06:38:25;10.10;;;8.17;;
59998;SDS011;45859;51.378;6.736;2023-04-06T06:40:50;9.30;;;7.80;;
59998;SDS011;45859;51.378;6.736;2023-04-06T06:43:17;11.33;;;8.43;;
59998;SDS011;45859;51.378;6.736;2023-04-06T06:45:43;9.50;;;8.07;;
59998;SDS011;45859;51.378;6.736;2023-04-06T06:48:09;14.17;;;8.53;;
59998;SDS011;45859;51.378;6.736;2023-04-06T06:50:34;12.80;;;8.43;;
59998;SDS011;45859;51.378;6.736;2023-04-06T06:53:00;10.87;;;7.77;;
59998;SDS011;45859;51.378;6.736;2023-04-06T06:55:26;9.27;;;8.17;;
59998;SDS011;45859;51.378;6.736;2023-04-06T06:57:52;9.30;;;7.93;;
59998;SDS011;45859;51.378;6.736;2023-04-06T07:00:18;11.20;;;8.50;;
59998;SDS011;45859;51.378;6.736;2023-04-06T07:02:45;10.47;;;7.90;;
59998;SDS011;45859;51.378;6.736;2023-04-06T07:05:12;9.30;;;8.17;;
59998;SDS011;45859;51.378;6.736;2023-04-06T07:07:38;9.17;;;8.17;;
59998;SDS011;45859;51.378;6.736;2023-04-06T07:10:03;10.33;;;7.63;;
59998;SDS011;45859;51.378;6.736;2023-04-06T07:12:29;9.00;;;7.63;;
59998;SDS011;45859;51.378;6.736;2023-04-06T07:14:55;10.47;;;7.73;;
59998;SDS011;45859;51.378;6.736;2023-04-06T07:17:21;10.03;;;8.27;;
59998;SDS011;45859;51.378;6.736;2023-04-06T07:19:46;9.90;;;7.80;;
59998;SDS011;45859;51.378;6.736;2023-04-06T07:22:12;9.83;;;8.30;;
59998;SDS011;45859;51.378;6.736;2023-04-06T07:24:38;14.67;;;8.23;;
59998;SDS011;45859;51.378;6.736;2023-04-06T07:27:03;9.47;;;7.90;;
59998;SDS011;45859;51.378;6.736;2023-04-06T07:29:29;10.97;;;7.80;;
59998;SDS011;45859;51.378;6.736;2023-04-06T07:31:55;9.30;;;8.00;;
59998;SDS011;45859;51.378;6.736;2023-04-06T07:34:21;10.63;;;8.60;;
59998;SDS011;45859;51.378;6.736;2023-04-06T07:36:47;10.90;;;8.60;;
59998;SDS011;45859;51.378;6.736;2023-04-06T07:39:13;11.27;;;8.80;;
59998;SDS011;45859;51.378;6.736;2023-04-06T07:41:39;9.43;;;8.43;;
59998;SDS011;45859;51.378;6.736;2023-04-06T07:44:05;10.93;;;8.67;;
59998;SDS011;45859;51.378;6.736;2023-04-06T07:46:30;11.70;;;8.30;;
59998;SDS011;45859;51.378;6.736;2023-04-06T07:48:56;9.87;;;8.00;;
59998;SDS011;45859;51.378;6.736;2023-04-06T07:51:23;10.63;;;8.30;;
59998;SDS011;45859;51.378;6.736;2023-04-06T07:53:50;9.47;;;8.30;;
59998;SDS011;45859;51.378;6.736;2023-04-06T07:56:15;9.43;;;8.33;;
59998;SDS011;45859;51.378;6.736;2023-04-06T07:58:41;10.13;;;8.47;;
59998;SDS011;45859;51.378;6.736;2023-04-06T08:01:07;10.27;;;7.53;;
59998;SDS011;45859;51.378;6.736;2023-04-06T08:03:33;10.37;;;8.03;;
59998;SDS011;45859;51.378;6.736;2023-04-06T08:06:00;10.67;;;8.73;;
59998;SDS011;45859;51.378;6.736;2023-04-06T08:08:26;9.73;;;8.00;;
59998;SDS011;45859;51.378;6.736;2023-04-06T08:10:51;15.70;;;9.03;;
59998;SDS011;45859;51.378;6.736;2023-04-06T08:13:17;10.77;;;8.80;;
59998;SDS011;45859;51.378;6.736;2023-04-06T08:15:43;10.45;;;8.85;;
59998;SDS011;45859;51.378;6.736;2023-04-06T08:18:09;9.95;;;8.63;;
59998;SDS011;45859;51.378;6.736;2023-04-06T08:20:34;10.60;;;8.85;;
59998;SDS011;45859;51.378;6.736;2023-04-06T08:23:00;14.73;;;9.02;;
59998;SDS011;45859;51.378;6.736;2023-04-06T08:25:26;11.02;;;8.57;;
59998;SDS011;45859;51.378;6.736;2023-04-06T08:27:52;11.13;;;8.50;;
59998;SDS011;45859;51.378;6.736;2023-04-06T08:30:17;11.53;;;9.13;;
59998;SDS011;45859;51.378;6.736;2023-04-06T08:32:44;11.17;;;8.60;;
59998;SDS011;45859;51.378;6.736;2023-04-06T08:35:10;11.13;;;9.00;;
59998;SDS011;45859;51.378;6.736;2023-04-06T08:37:36;12.97;;;9.37;;
59998;SDS011;45859;51.378;6.736;2023-04-06T08:40:02;11.97;;;8.43;;
59998;SDS011;45859;51.378;6.736;2023-04-06T08:42:31;12.80;;;9.50;;
59998;SDS011;45859;51.378;6.736;2023-04-06T08:44:59;14.63;;;9.83;;
59998;SDS011;45859;51.378;6.736;2023-04-06T08:47:25;13.50;;;9.30;;
59998;SDS011;45859;51.378;6.736;2023-04-06T08:49:52;11.70;;;9.67;;
59998;SDS011;45859;51.378;6.736;2023-04-06T08:52:18;12.93;;;9.67;;
59998;SDS011;45859;51.378;6.736;2023-04-06T08:54:44;10.67;;;9.57;;
59998;SDS011;45859;51.378;6.736;2023-04-06T08:57:11;11.93;;;9.57;;
59998;SDS011;45859;51.378;6.736;2023-04-06T08:59:37;13.13;;;10.20;;
59998;SDS011;45859;51.378;6.736;2023-04-06T09:02:04;14.23;;;10.30;;
59998;SDS011;45859;51.378;6.736;2023-04-06T09:04:31;16.20;;;10.40;;
59998;SDS011;45859;51.378;6.736;2023-04-06T09:06:59;12.43;;;10.20;;
59998;SDS011;45859;51.378;6.736;2023-04-06T09:09:26;15.17;;;10.50;;
59998;SDS011;45859;51.378;6.736;2023-04-06T09:11:51;13.77;;;10.23;;
59998;SDS011;45859;51.378;6.736;2023-04-06T09:14:32;14.50;;;9.67;;
59998;SDS011;45859;51.378;6.736;2023-04-06T09:17:01;18.57;;;10.93;;
59998;SDS011;45859;51.378;6.736;2023-04-06T09:19:27;14.13;;;10.97;;
59998;SDS011;45859;51.378;6.736;2023-04-06T09:22:05;16.60;;;11.13;;
59998;SDS011;45859;51.378;6.736;2023-04-06T09:24:44;14.93;;;11.40;;
59998;SDS011;45859;51.378;6.736;2023-04-06T09:27:14;16.10;;;11.17;;
59998;SDS011;45859;51.378;6.736;2023-04-06T09:29:43;15.50;;;11.47;;
59998;SDS011;45859;51.378;6.736;2023-04-06T09:32:10;13.77;;;11.00;;
59998;SDS011;45859;51.378;6.736;2023-04-06T09:34:37;15.43;;;11.00;;
59998;SDS011;45859;51.378;6.736;2023-04-06T09:37:16;15.43;;;11.37;;
59998;SDS011;45859;51.378;6.736;2023-04-06T09:39:43;17.83;;;11.67;;
59998;SDS011;45859;51.378;6.736;2023-04-06T09:42:09;15.93;;;12.10;;
59998;SDS011;45859;51.378;6.736;2023-04-06T09:44:48;16.60;;;12.20;;
59998;SDS011;45859;51.378;6.736;2023-04-06T09:47:14;20.90;;;11.60;;
59998;SDS011;45859;51.378;6.736;2023-04-06T09:49:41;16.77;;;11.50;;
59998;SDS011;45859;51.378;6.736;2023-04-06T09:52:10;16.47;;;12.33;;
59998;SDS011;45859;51.378;6.736;2023-04-06T09:54:37;16.60;;;12.33;;
59998;SDS011;45859;51.378;6.736;2023-04-06T09:59:44;16.93;;;11.80;;
59998;SDS011;45859;51.378;6.736;2023-04-06T10:02:51;20.63;;;13.03;;
59998;SDS011;45859;51.378;6.736;2023-04-06T10:07:59;17.40;;;11.82;;
59998;SDS011;45859;51.378;6.736;2023-04-06T10:10:29;19.23;;;12.47;;
59998;SDS011;45859;51.378;6.736;2023-04-06T10:12:55;16.47;;;12.27;;
59998;SDS011;45859;51.378;6.736;2023-04-06T10:15:22;18.53;;;12.80;;
59998;SDS011;45859;51.378;6.736;2023-04-06T10:17:49;17.23;;;11.80;;
59998;SDS011;45859;51.378;6.736;2023-04-06T10:20:18;16.77;;;12.43;;
59998;SDS011;45859;51.378;6.736;2023-04-06T10:25:51;20.55;;;12.98;;
59998;SDS011;45859;51.378;6.736;2023-04-06T10:28:23;18.20;;;12.60;;
59998;SDS011;45859;51.378;6.736;2023-04-06T10:30:49;16.57;;;11.67;;
59998;SDS011;45859;51.378;6.736;2023-04-06T10:33:23;20.00;;;12.70;;
59998;SDS011;45859;51.378;6.736;2023-04-06T10:35:48;17.57;;;11.93;;
59998;SDS011;45859;51.378;6.736;2023-04-06T10:38:14;18.20;;;12.67;;
59998;SDS011;45859;51.378;6.736;2023-04-06T10:40:41;16.87;;;11.57;;
59998;SDS011;45859;51.378;6.736;2023-04-06T10:43:18;19.93;;;13.90;;
59998;SDS011;45859;51.378;6.736;2023-04-06T10:45:45;21.27;;;13.20;;
59998;SDS011;45859;51.378;6.736;2023-04-06T10:48:20;18.60;;;12.93;;
59998;SDS011;45859;51.378;6.736;2023-04-06T10:50:47;18.83;;;12.37;;
59998;SDS011;45859;51.378;6.736;2023-04-06T10:53:21;21.13;;;13.53;;
59998;SDS011;45859;51.378;6.736;2023-04-06T10:55:47;18.70;;;13.23;;
59998;SDS011;45859;51.378;6.736;2023-04-06T10:58:15;19.87;;;13.47;;
59998;SDS011;45859;51.378;6.736;2023-04-06T11:00:47;19.23;;;13.53;;
59998;SDS011;45859;51.378;6.736;2023-04-06T11:03:14;19.80;;;14.07;;
59998;SDS011;45859;51.378;6.736;2023-04-06T11:05:47;22.07;;;14.03;;
59998;SDS011;45859;51.378;6.736;2023-04-06T11:10:48;20.80;;;13.73;;
59998;SDS011;45859;51.378;6.736;2023-04-06T11:13:14;21.07;;;13.80;;
59998;SDS011;45859;51.378;6.736;2023-04-06T11:15:40;20.93;;;13.87;;
59998;SDS011;45859;51.378;6.736;2023-04-06T11:18:05;18.83;;;13.60;;
59998;SDS011;45859;51.378;6.736;2023-04-06T11:20:31;19.23;;;13.63;;
59998;SDS011;45859;51.378;6.736;2023-04-06T11:22:57;18.53;;;13.00;;
59998;SDS011;45859;51.378;6.736;2023-04-06T11:25:24;19.07;;;13.50;;
59998;SDS011;45859;51.378;6.736;2023-04-06T11:27:51;18.53;;;13.33;;
59998;SDS011;45859;51.378;6.736;2023-04-06T11:30:17;20.30;;;14.13;;
59998;SDS011;45859;51.378;6.736;2023-04-06T11:32:44;23.57;;;14.63;;
59998;SDS011;45859;51.378;6.736;2023-04-06T11:35:11;19.73;;;13.80;;
59998;SDS011;45859;51.378;6.736;2023-04-06T11:37:48;25.50;;;14.33;;
59998;SDS011;45859;51.378;6.736;2023-04-06T11:40:14;21.17;;;14.27;;
59998;SDS011;45859;51.378;6.736;2023-04-06T11:42:41;19.50;;;14.33;;
59998;SDS011;45859;51.378;6.736;2023-04-06T11:45:07;21.03;;;13.40;;
59998;SDS011;45859;51.378;6.736;2023-04-06T11:47:34;21.83;;;13.80;;
59998;SDS011;45859;51.378;6.736;2023-04-06T11:50:07;22.37;;;14.00;;
59998;SDS011;45859;51.378;6.736;2023-04-06T11:52:34;18.60;;;12.47;;
59998;SDS011;45859;51.378;6.736;2023-04-06T11:55:10;19.27;;;12.80;;
59998;SDS011;45859;51.378;6.736;2023-04-06T11:57:36;22.33;;;13.33;;
59998;SDS011;45859;51.378;6.736;2023-04-06T12:00:02;20.30;;;12.80;;
59998;SDS011;45859;51.378;6.736;2023-04-06T12:02:27;18.63;;;13.43;;
59998;SDS011;45859;51.378;6.736;2023-04-06T12:04:53;19.93;;;12.57;;
59998;SDS011;45859;51.378;6.736;2023-04-06T12:07:19;19.37;;;13.40;;
59998;SDS011;45859;51.378;6.736;2023-04-06T12:09:44;21.97;;;13.47;;
59998;SDS011;45859;51.378;6.736;2023-04-06T12:12:10;19.20;;;12.73;;
59998;SDS011;45859;51.378;6.736;2023-04-06T12:14:36;19.97;;;13.37;;
59998;SDS011;45859;51.378;6.736;2023-04-06T12:17:01;18.97;;;13.43;;
59998;SDS011;45859;51.378;6.736;2023-04-06T12:19:27;21.73;;;14.40;;
59998;SDS011;45859;51.378;6.736;2023-04-06T12:21:54;22.30;;;13.60;;
59998;SDS011;45859;51.378;6.736;2023-04-06T12:24:20;22.63;;;14.27;;
59998;SDS011;45859;51.378;6.736;2023-04-06T12:26:46;21.13;;;14.70;;
59998;SDS011;45859;51.378;6.736;2023-04-06T12:29:11;20.83;;;13.77;;
59998;SDS011;45859;51.378;6.736;2023-04-06T12:31:38;18.87;;;14.10;;
59998;SDS011;45859;51.378;6.736;2023-04-06T12:34:06;20.00;;;14.53;;
59998;SDS011;45859;51.378;6.736;2023-04-06T12:36:32;21.87;;;13.97;;
59998;SDS011;45859;51.378;6.736;2023-04-06T12:38:58;19.83;;;13.30;;
59998;SDS011;45859;51.378;6.736;2023-04-06T12:41:25;19.13;;;13.80;;
59998;SDS011;45859;51.378;6.736;2023-04-06T12:43:51;16.10;;;11.77;;
59998;SDS011;45859;51.378;6.736;2023-04-06T12:46:17;17.17;;;11.53;;
59998;SDS011;45859;51.378;6.736;2023-04-06T12:48:43;18.27;;;12.03;;
59998;SDS011;45859;51.378;6.736;2023-04-06T12:51:08;16.90;;;11.50;;
59998;SDS011;45859;51.378;6.736;2023-04-06T12:53:34;15.77;;;10.67;;
59998;SDS011;45859;51.378;6.736;2023-04-06T12:56:01;19.43;;;10.73;;
59998;SDS011;45859;51.378;6.736;2023-04-06T12:58:28;14.20;;;8.20;;
59998;SDS011;45859;51.378;6.736;2023-04-06T13:00:54;13.63;;;8.93;;
59998;SDS011;45859;51.378;6.736;2023-04-06T13:03:21;12.67;;;8.70;;
59998;SDS011;45859;51.378;6.736;2023-04-06T13:05:47;11.67;;;9.20;;
59998;SDS011;45859;51.378;6.736;2023-04-06T13:08:15;17.67;;;9.70;;
59998;SDS011;45859;51.378;6.736;2023-04-06T13:10:48;9.60;;;6.40;;
59998;SDS011;45859;51.378;6.736;2023-04-06T13:13:22;8.30;;;6.20;;
59998;SDS011;45859;51.378;6.736;2023-04-06T13:15:49;9.10;;;6.43;;
59998;SDS011;45859;51.378;6.736;2023-04-06T13:18:16;7.73;;;6.10;;
59998;SDS011;45859;51.378;6.736;2023-04-06T13:20:42;9.13;;;6.93;;
59998;SDS011;45859;51.378;6.736;2023-04-06T13:23:08;8.87;;;6.70;;
59998;SDS011;45859;51.378;6.736;2023-04-06T13:25:33;9.53;;;6.63;;
59998;SDS011;45859;51.378;6.736;2023-04-06T13:27:59;9.30;;;6.67;;
59998;SDS011;45859;51.378;6.736;2023-04-06T13:30:25;10.17;;;7.60;;
59998;SDS011;45859;51.378;6.736;2023-04-06T13:32:51;14.73;;;7.43;;
59998;SDS011;45859;51.378;6.736;2023-04-06T13:35:17;10.90;;;7.43;;
59998;SDS011;45859;51.378;6.736;2023-04-06T13:37:43;11.80;;;7.80;;
59998;SDS011;45859;51.378;6.736;2023-04-06T13:40:09;15.60;;;8.87;;
59998;SDS011;45859;51.378;6.736;2023-04-06T13:42:36;13.97;;;8.77;;
59998;SDS011;45859;51.378;6.736;2023-04-06T13:45:03;13.53;;;9.17;;
59998;SDS011;45859;51.378;6.736;2023-04-06T13:47:29;15.90;;;10.00;;
59998;SDS011;45859;51.378;6.736;2023-04-06T13:49:55;12.90;;;9.50;;
59998;SDS011;45859;51.378;6.736;2023-04-06T13:52:21;12.73;;;9.23;;
59998;SDS011;45859;51.378;6.736;2023-04-06T13:54:47;11.10;;;8.87;;
59998;SDS011;45859;51.378;6.736;2023-04-06T13:57:13;11.00;;;8.97;;
59998;SDS011;45859;51.378;6.736;2023-04-06T13:59:39;11.00;;;8.77;;
59998;SDS011;45859;51.378;6.736;2023-04-06T14:02:05;11.13;;;8.80;;
59998;SDS011;45859;51.378;6.736;2023-04-06T14:04:32;12.33;;;9.27;;
59998;SDS011;45859;51.378;6.736;2023-04-06T14:06:58;13.90;;;9.53;;
59998;SDS011;45859;51.378;6.736;2023-04-06T14:09:25;13.50;;;9.23;;
59998;SDS011;45859;51.378;6.736;2023-04-06T14:11:51;11.90;;;8.33;;
59998;SDS011;45859;51.378;6.736;2023-04-06T14:14:17;11.10;;;8.73;;
59998;SDS011;45859;51.378;6.736;2023-04-06T14:16:43;10.57;;;8.57;;
59998;SDS011;45859;51.378;6.736;2023-04-06T14:19:09;8.63;;;7.60;;
59998;SDS011;45859;51.378;6.736;2023-04-06T14:21:37;10.43;;;7.80;;
59998;SDS011;45859;51.378;6.736;2023-04-06T14:24:09;9.60;;;8.13;;
59998;SDS011;45859;51.378;6.736;2023-04-06T14:26:35;11.00;;;8.20;;
59998;SDS011;45859;51.378;6.736;2023-04-06T14:29:02;10.43;;;8.70;;
59998;SDS011;45859;51.378;6.736;2023-04-06T14:31:29;12.77;;;8.77;;
59998;SDS011;45859;51.378;6.736;2023-04-06T14:33:55;12.73;;;8.70;;
59998;SDS011;45859;51.378;6.736;2023-04-06T14:36:21;13.17;;;9.10;;
59998;SDS011;45859;51.378;6.736;2023-04-06T14:38:46;12.10;;;9.17;;
59998;SDS011;45859;51.378;6.736;2023-04-06T14:41:16;10.60;;;8.67;;
59998;SDS011;45859;51.378;6.736;2023-04-06T14:43:43;12.13;;;9.57;;